sensor_id;sensor_type;location;lat;lon;timestamp;pressure;altitude;pressure_sealevel;temperature;humidity
39309;BME280;26019;47.510;19.122;2023-12-29T00:02:10;100680.25;;;1.44;100.00
39309;BME280;26019;47.510;19.122;2023-12-29T00:12:12;100670.41;;;1.53;100.00
39309;BME280;26019;47.510;19.122;2023-12-29T00:22:14;100666.03;;;1.26;100.00
39309;BME280;26019;47.510;19.122;2023-12-29T00:32:16;100640.75;;;1.31;100.00
39309;BME280;26019;47.510;19.122;2023-12-29T00:42:21;100645.78;;;1.54;100.00
39309;BME280;26019;47.510;19.122;2023-12-29T00:52:22;100649.13;;;1.51;100.00
39309;BME280;26019;47.510;19.122;2023-12-29T01:02:24;100641.25;;;1.45;100.00
39309;BME280;26019;47.510;19.122;2023-12-29T01:12:26;100633.13;;;1.55;100.00
39309;BME280;26019;47.510;19.122;2023-12-29T01:22:28;100653.03;;;1.66;100.00
39309;BME280;26019;47.510;19.122;2023-12-29T01:32:29;100653.25;;;1.47;100.00
39309;BME280;26019;47.510;19.122;2023-12-29T01:42:31;100627.16;;;1.30;100.00
39309;BME280;26019;47.510;19.122;2023-12-29T01:52:33;100614.81;;;1.41;100.00
39309;BME280;26019;47.510;19.122;2023-12-29T02:02:35;100602.94;;;1.42;100.00
39309;BME280;26019;47.510;19.122;2023-12-29T02:12:38;100603.63;;;1.38;100.00
39309;BME280;26019;47.510;19.122;2023-12-29T02:22:39;100615.41;;;1.58;100.00
39309;BME280;26019;47.510;19.122;2023-12-29T02:32:43;100597.69;;;1.61;100.00
39309;BME280;26019;47.510;19.122;2023-12-29T02:42:47;100586.50;;;1.58;100.00
39309;BME280;26019;47.510;19.122;2023-12-29T02:52:50;100591.81;;;1.64;100.00
39309;BME280;26019;47.510;19.122;2023-12-29T03:02:52;100596.25;;;1.70;100.00
39309;BME280;26019;47.510;19.122;2023-12-29T03:12:53;100570.28;;;1.80;100.00
39309;BME280;26019;47.510;19.122;2023-12-29T03:22:58;100568.28;;;1.97;100.00
39309;BME280;26019;47.510;19.122;2023-12-29T03:33:00;100570.69;;;1.92;100.00
39309;BME280;26019;47.510;19.122;2023-12-29T03:43:06;100573.31;;;1.70;100.00
39309;BME280;26019;47.510;19.122;2023-12-29T03:53:11;100567.47;;;1.72;100.00
39309;BME280;26019;47.510;19.122;2023-12-29T04:03:13;100580.66;;;1.60;100.00
39309;BME280;26019;47.510;19.122;2023-12-29T04:13:15;100580.81;;;1.65;100.00
39309;BME280;26019;47.510;19.122;2023-12-29T04:23:17;100590.31;;;1.45;100.00
39309;BME280;26019;47.510;19.122;2023-12-29T04:33:19;100585.88;;;1.16;100.00
39309;BME280;26019;47.510;19.122;2023-12-29T04:43:20;100569.91;;;1.21;100.00
39309;BME280;26019;47.510;19.122;2023-12-29T04:53:23;100580.78;;;1.16;100.00
39309;BME280;26019;47.510;19.122;2023-12-29T05:03:25;100575.88;;;1.21;100.00
39309;BME280;26019;47.510;19.122;2023-12-29T05:13:27;100583.75;;;1.04;100.00
39309;BME280;26019;47.510;19.122;2023-12-29T05:23:31;100577.41;;;0.93;100.00
39309;BME280;26019;47.510;19.122;2023-12-29T05:33:34;100585.50;;;1.06;100.00
39309;BME280;26019;47.510;19.122;2023-12-29T05:43:42;100607.00;;;1.14;100.00
39309;BME280;26019;47.510;19.122;2023-12-29T05:53:44;100614.25;;;1.03;100.00
39309;BME280;26019;47.510;19.122;2023-12-29T06:03:46;100602.97;;;1.19;100.00
39309;BME280;26019;47.510;19.122;2023-12-29T06:13:48;100612.56;;;1.26;100.00
39309;BME280;26019;47.510;19.122;2023-12-29T06:23:49;100611.06;;;1.31;100.00
39309;BME280;26019;47.510;19.122;2023-12-29T06:33:52;100615.00;;;1.00;100.00
39309;BME280;26019;47.510;19.122;2023-12-29T06:43:55;100606.91;;;0.88;100.00
39309;BME280;26019;47.510;19.122;2023-12-29T06:53:59;100610.09;;;0.82;100.00
39309;BME280;26019;47.510;19.122;2023-12-29T07:04:02;100614.69;;;0.47;100.00
39309;BME280;26019;47.510;19.122;2023-12-29T07:14:08;100619.69;;;0.89;100.00
39309;BME280;26019;47.510;19.122;2023-12-29T07:24:11;100623.34;;;0.96;100.00
39309;BME280;26019;47.510;19.122;2023-12-29T07:34:14;100624.19;;;0.74;100.00
39309;BME280;26019;47.510;19.122;2023-12-29T07:44:17;100620.09;;;1.00;100.00
39309;BME280;26019;47.510;19.122;2023-12-29T07:54:21;100612.06;;;1.12;100.00
39309;BME280;26019;47.510;19.122;2023-12-29T08:04:23;100603.09;;;1.22;100.00
39309;BME280;26019;47.510;19.122;2023-12-29T08:14:28;100626.09;;;1.72;100.00
39309;BME280;26019;47.510;19.122;2023-12-29T08:24:30;100638.75;;;1.71;100.00
39309;BME280;26019;47.510;19.122;2023-12-29T08:34:32;100639.38;;;2.14;100.00
39309;BME280;26019;47.510;19.122;2023-12-29T08:44:35;100643.91;;;2.22;100.00
39309;BME280;26019;47.510;19.122;2023-12-29T08:54:36;100637.09;;;2.21;100.00
39309;BME280;26019;47.510;19.122;2023-12-29T09:04:38;100629.50;;;2.50;100.00
39309;BME280;26019;47.510;19.122;2023-12-29T09:14:41;100640.16;;;3.21;100.00
39309;BME280;26019;47.510;19.122;2023-12-29T09:24:46;100616.91;;;3.42;100.00
39309;BME280;26019;47.510;19.122;2023-12-29T09:34:47;100636.47;;;4.06;100.00
39309;BME280;26019;47.510;19.122;2023-12-29T09:44:50;100625.34;;;4.37;100.00
39309;BME280;26019;47.510;19.122;2023-12-29T09:54:55;100616.84;;;5.58;100.00
39309;BME280;26019;47.510;19.122;2023-12-29T10:04:57;100611.16;;;6.22;100.00
39309;BME280;26019;47.510;19.122;2023-12-29T10:15:18;100596.25;;;11.23;97.81
39309;BME280;26019;47.510;19.122;2023-12-29T10:25:28;100583.22;;;14.49;57.31
39309;BME280;26019;47.510;19.122;2023-12-29T10:35:30;100563.94;;;15.87;52.61
39309;BME280;26019;47.510;19.122;2023-12-29T10:45:34;100558.66;;;16.58;50.53
39309;BME280;26019;47.510;19.122;2023-12-29T10:55:40;100545.50;;;15.18;51.39
39309;BME280;26019;47.510;19.122;2023-12-29T11:05:50;100537.16;;;17.95;45.29
39309;BME280;26019;47.510;19.122;2023-12-29T11:15:53;100518.34;;;18.61;44.63
39309;BME280;26019;47.510;19.122;2023-12-29T11:25:57;100508.97;;;17.78;44.42
39309;BME280;26019;47.510;19.122;2023-12-29T11:36:28;100503.47;;;16.72;47.16
39309;BME280;26019;47.510;19.122;2023-12-29T11:46:38;100488.75;;;17.01;46.87
39309;BME280;26019;47.510;19.122;2023-12-29T11:56:42;100461.31;;;15.91;48.88
39309;BME280;26019;47.510;19.122;2023-12-29T12:06:45;100464.72;;;16.26;48.41
39309;BME280;26019;47.510;19.122;2023-12-29T12:16:50;100463.53;;;16.07;49.45
39309;BME280;26019;47.510;19.122;2023-12-29T12:26:54;100449.03;;;17.46;45.47
39309;BME280;26019;47.510;19.122;2023-12-29T12:36:58;100443.31;;;14.23;54.25
39309;BME280;26019;47.510;19.122;2023-12-29T12:47:07;100448.25;;;12.73;65.26
39309;BME280;26019;47.510;19.122;2023-12-29T12:57:10;100447.09;;;12.25;72.33
39309;BME280;26019;47.510;19.122;2023-12-29T13:07:17;100451.22;;;12.42;75.97
39309;BME280;26019;47.510;19.122;2023-12-29T13:17:30;100433.78;;;9.91;100.00
39309;BME280;26019;47.510;19.122;2023-12-29T13:27:32;100414.53;;;10.92;93.85
39309;BME280;26019;47.510;19.122;2023-12-29T13:37:51;100419.31;;;11.44;86.92
39309;BME280;26019;47.510;19.122;2023-12-29T13:47:57;100431.59;;;11.17;85.50
39309;BME280;26019;47.510;19.122;2023-12-29T13:58:09;100414.81;;;10.08;100.00
39309;BME280;26019;47.510;19.122;2023-12-29T14:29:11;100440.50;;;8.59;100.00
39309;BME280;26019;47.510;19.122;2023-12-29T14:39:13;100437.13;;;8.85;100.00
39309;BME280;26019;47.510;19.122;2023-12-29T14:49:17;100442.03;;;8.32;100.00
39309;BME280;26019;47.510;19.122;2023-12-29T14:59:19;100469.34;;;8.08;100.00
39309;BME280;26019;47.510;19.122;2023-12-29T15:09:21;100469.19;;;7.83;100.00
39309;BME280;26019;47.510;19.122;2023-12-29T15:19:25;100466.44;;;7.63;100.00
39309;BME280;26019;47.510;19.122;2023-12-29T15:29:27;100477.38;;;7.39;100.00
39309;BME280;26019;47.510;19.122;2023-12-29T15:39:34;100464.34;;;7.22;100.00
39309;BME280;26019;47.510;19.122;2023-12-29T15:49:39;100491.50;;;6.98;100.00
39309;BME280;26019;47.510;19.122;2023-12-29T15:59:41;100494.03;;;6.93;100.00
39309;BME280;26019;47.510;19.122;2023-12-29T16:09:58;100482.81;;;6.85;100.00
39309;BME280;26019;47.510;19.122;2023-12-29T16:20:01;100479.28;;;6.77;100.00
39309;BME280;26019;47.510;19.122;2023-12-29T16:30:05;100492.66;;;6.51;100.00
39309;BME280;26019;47.510;19.122;2023-12-29T16:40:07;100461.50;;;6.26;100.00
39309;BME280;26019;47.510;19.122;2023-12-29T16:50:12;100463.56;;;5.92;100.00
39309;BME280;26019;47.510;19.122;2023-12-29T17:00:17;100463.34;;;5.79;100.00
39309;BME280;26019;47.510;19.122;2023-12-29T17:10:26;100452.38;;;5.36;100.00
39309;BME280;26019;47.510;19.122;2023-12-29T17:20:28;100445.28;;;5.21;100.00
39309;BME280;26019;47.510;19.122;2023-12-29T17:30:31;100442.44;;;5.05;100.00
39309;BME280;26019;47.510;19.122;2023-12-29T17:40:33;100439.78;;;5.01;100.00
39309;BME280;26019;47.510;19.122;2023-12-29T17:50:35;100449.75;;;4.85;100.00
39309;BME280;26019;47.510;19.122;2023-12-29T18:00:37;100447.75;;;4.72;100.00
39309;BME280;26019;47.510;19.122;2023-12-29T18:10:39;100452.81;;;4.69;100.00
39309;BME280;26019;47.510;19.122;2023-12-29T18:20:47;100453.34;;;4.52;100.00
39309;BME280;26019;47.510;19.122;2023-12-29T18:30:51;100449.81;;;4.45;100.00
39309;BME280;26019;47.510;19.122;2023-12-29T18:40:54;100441.16;;;4.40;100.00
39309;BME280;26019;47.510;19.122;2023-12-29T18:50:56;100447.25;;;4.45;100.00
39309;BME280;26019;47.510;19.122;2023-12-29T19:00:58;100451.41;;;4.40;100.00
39309;BME280;26019;47.510;19.122;2023-12-29T19:11:18;100443.88;;;4.49;100.00
39309;BME280;26019;47.510;19.122;2023-12-29T19:21:20;100443.34;;;4.23;100.00
39309;BME280;26019;47.510;19.122;2023-12-29T19:31:23;100429.38;;;4.09;100.00
39309;BME280;26019;47.510;19.122;2023-12-29T19:41:33;100423.19;;;3.97;100.00
39309;BME280;26019;47.510;19.122;2023-12-29T19:51:36;100427.31;;;3.92;100.00
39309;BME280;26019;47.510;19.122;2023-12-29T20:01:44;100419.66;;;3.92;100.00
39309;BME280;26019;47.510;19.122;2023-12-29T20:11:50;100430.41;;;3.79;100.00
39309;BME280;26019;47.510;19.122;2023-12-29T20:21:58;100417.41;;;3.69;100.00
39309;BME280;26019;47.510;19.122;2023-12-29T20:32:00;100416.16;;;3.52;100.00
39309;BME280;26019;47.510;19.122;2023-12-29T20:42:02;100408.38;;;3.47;100.00
39309;BME280;26019;47.510;19.122;2023-12-29T20:52:04;100401.63;;;3.16;100.00
39309;BME280;26019;47.510;19.122;2023-12-29T21:02:06;100400.81;;;3.17;100.00
39309;BME280;26019;47.510;19.122;2023-12-29T21:12:08;100404.84;;;3.08;100.00
39309;BME280;26019;47.510;19.122;2023-12-29T21:22:15;100401.22;;;3.00;100.00
39309;BME280;26019;47.510;19.122;2023-12-29T21:32:20;100415.56;;;2.95;100.00
39309;BME280;26019;47.510;19.122;2023-12-29T21:42:38;100415.19;;;2.81;100.00
39309;BME280;26019;47.510;19.122;2023-12-29T21:52:49;100397.38;;;2.52;100.00
39309;BME280;26019;47.510;19.122;2023-12-29T22:02:51;100399.03;;;2.21;100.00
39309;BME280;26019;47.510;19.122;2023-12-29T22:12:54;100397.91;;;2.11;100.00
39309;BME280;26019;47.510;19.122;2023-12-29T22:22:57;100388.25;;;2.01;100.00
39309;BME280;26019;47.510;19.122;2023-12-29T22:33:00;100384.97;;;1.76;100.00
39309;BME280;26019;47.510;19.122;2023-12-29T22:43:09;100378.75;;;1.68;100.00
39309;BME280;26019;47.510;19.122;2023-12-29T22:53:11;100368.09;;;1.52;100.00
39309;BME280;26019;47.510;19.122;2023-12-29T23:03:19;100387.78;;;1.58;100.00
39309;BME280;26019;47.510;19.122;2023-12-29T23:13:23;100373.88;;;1.46;100.00
39309;BME280;26019;47.510;19.122;2023-12-29T23:23:26;100346.59;;;1.44;100.00
39309;BME280;26019;47.510;19.122;2023-12-29T23:33:29;100347.84;;;1.57;100.00
39309;BME280;26019;47.510;19.122;2023-12-29T23:43:31;100347.63;;;1.49;100.00
39309;BME280;26019;47.510;19.122;2023-12-29T23:53:34;100335.81;;;1.51;100.00
